Time;durP1;ratioP1;P1;durP2;ratioP2;P2;SDS_P1;SDS_P2;PMS_P1;PMS_P2;Temp;Humidity;BMP_temperature;BMP_pressure;BME280_temperature;BME280_humidity;BME280_pressure;Samples;Min_cycle;Max_cycle;Signal;HPM_P1;HPM_P2
2024/01/05 00:00:50;;;;;;;;;2.00;2.00;;;;;21.97;52.82;99860.27;112276;1244;20130;-30
2024/01/05 00:03:34;;;;;;;;;6.33;4.00;;;;;21.95;52.65;99862.95;112323;1245;20723;-31
2024/01/05 00:06:01;;;;;;;;;1.00;1.00;;;;;21.94;52.92;99871.48;112327;1244;20795;-30
2024/01/05 00:08:28;;;;;;;;;4.00;2.00;;;;;21.95;52.88;99869.12;112277;1259;18484;-31
2024/01/05 00:10:56;;;;;;;;;2.00;2.00;;;;;21.93;52.66;99872.10;112255;1244;20953;-30
2024/01/05 00:13:23;;;;;;;;;2.00;2.00;;;;;21.96;52.80;99876.52;112302;1244;19465;-30
2024/01/05 00:15:50;;;;;;;;;1.00;1.00;;;;;21.98;52.78;99881.67;112124;1259;213890;-30
2024/01/05 00:18:17;;;;;;;;;3.00;2.00;;;;;21.93;52.75;99883.50;112339;1244;22124;-31
2024/01/05 00:20:45;;;;;;;;;2.00;1.00;;;;;21.92;52.94;99882.52;112316;1245;19551;-30
2024/01/05 00:23:12;;;;;;;;;2.00;2.00;;;;;21.88;52.83;99882.33;112346;1244;18942;-31
2024/01/05 00:25:40;;;;;;;;;4.00;2.00;;;;;21.83;53.04;99882.20;112301;1253;20681;-30
2024/01/05 00:28:07;;;;;;;;;2.00;2.00;;;;;21.82;52.96;99884.13;112355;1244;18552;-31
2024/01/05 00:30:34;;;;;;;;;2.67;2.67;;;;;21.79;52.83;99886.46;112303;1259;19974;-31
2024/01/05 00:33:01;;;;;;;;;2.00;2.00;;;;;21.76;52.94;99892.50;112335;1244;21171;-30
2024/01/05 00:35:29;;;;;;;;;1.00;1.00;;;;;21.76;52.91;99889.56;112313;1244;19678;-30
2024/01/05 00:37:56;;;;;;;;;4.00;2.00;;;;;21.76;52.71;99885.64;112249;1259;18659;-30
2024/01/05 00:40:23;;;;;;;;;4.00;2.00;;;;;21.78;52.52;99893.73;112253;1259;19349;-31
2024/01/05 00:42:51;;;;;;;;;1.33;1.33;;;;;21.75;52.73;99901.89;112244;1253;18167;-31
2024/01/05 00:45:20;;;;;;;;;2.00;2.00;;;;;21.75;52.34;99912.15;112288;1259;20118;-30
2024/01/05 00:47:47;;;;;;;;;2.00;2.00;;;;;21.76;52.39;99918.95;112291;1244;20821;-30
2024/01/05 00:50:14;;;;;;;;;2.00;2.00;;;;;21.75;52.50;99925.67;112329;1244;19636;-31
2024/01/05 00:52:42;;;;;;;;;2.00;2.00;;;;;21.76;52.03;99938.91;112296;1244;20039;-31
2024/01/05 00:55:09;;;;;;;;;2.00;2.00;;;;;21.75;52.22;99939.36;112225;1245;20552;-30
2024/01/05 00:57:37;;;;;;;;;2.00;2.00;;;;;21.75;51.87;99942.30;112312;1259;18107;-31
2024/01/05 01:00:04;;;;;;;;;1.00;1.00;;;;;21.76;51.93;99947.63;112257;1246;20260;-31
2024/01/05 01:02:31;;;;;;;;;1.67;1.00;;;;;21.78;51.86;99951.48;112347;1247;20909;-30
2024/01/05 01:04:59;;;;;;;;;1.00;1.00;;;;;21.75;51.66;99950.26;112302;1244;19993;-31
2024/01/05 01:07:26;;;;;;;;;1.00;1.00;;;;;21.75;51.93;99955.06;112387;1244;20739;-31
2024/01/05 01:09:54;;;;;;;;;1.00;1.00;;;;;21.72;51.94;99958.60;112309;1244;20807;-30
2024/01/05 01:12:21;;;;;;;;;2.00;2.00;;;;;21.72;51.69;99959.52;112271;1254;19462;-30
2024/01/05 01:14:48;;;;;;;;;2.00;2.00;;;;;21.71;51.86;99959.04;112239;1244;20100;-30
2024/01/05 01:17:15;;;;;;;;;1.00;1.00;;;;;21.72;51.65;99966.17;112284;1259;20665;-30
2024/01/05 01:19:43;;;;;;;;;1.00;1.00;;;;;21.70;51.87;99967.77;112298;1259;18552;-31
2024/01/05 01:22:10;;;;;;;;;1.00;1.00;;;;;21.72;51.54;99969.88;112280;1259;19827;-30
2024/01/05 01:24:37;;;;;;;;;1.00;1.00;;;;;21.73;51.42;99968.61;112364;1244;22005;-31
2024/01/05 01:27:05;;;;;;;;;2.00;1.50;;;;;21.72;51.45;99964.53;112252;1244;20770;-30
2024/01/05 01:29:32;;;;;;;;;1.00;1.00;;;;;21.72;51.47;99969.45;112404;1259;21223;-30
2024/01/05 01:31:59;;;;;;;;;2.00;2.00;;;;;21.71;51.53;99966.19;112305;1259;19327;-30
2024/01/05 01:34:27;;;;;;;;;1.00;1.00;;;;;21.70;51.27;99968.54;112432;1259;19859;-31
2024/01/05 01:36:54;;;;;;;;;2.00;2.00;;;;;21.71;51.17;99969.13;112297;1247;20001;-30
2024/01/05 01:39:21;;;;;;;;;3.50;2.00;;;;;21.70;51.29;99968.98;112420;1244;19328;-30
2024/01/05 01:41:49;;;;;;;;;1.00;1.00;;;;;21.70;51.21;99969.20;112348;1253;18127;-30
2024/01/05 01:44:16;;;;;;;;;1.00;1.00;;;;;21.69;51.14;99972.88;112529;1259;18803;-31
2024/01/05 01:46:44;;;;;;;;;1.50;1.50;;;;;21.69;51.17;99973.79;112266;1244;20759;-31
2024/01/05 01:49:12;;;;;;;;;1.50;1.50;;;;;21.71;51.01;99974.04;112493;1244;20673;-31
2024/01/05 01:51:39;;;;;;;;;1.00;1.00;;;;;21.69;51.08;99978.75;112331;1244;19969;-30
2024/01/05 01:54:06;;;;;;;;;1.00;1.00;;;;;21.70;50.90;99976.84;112519;1259;20330;-31
2024/01/05 01:56:34;;;;;;;;;1.00;1.00;;;;;21.69;50.76;99974.50;112365;1259;18142;-31
2024/01/05 01:59:01;;;;;;;;;1.00;1.00;;;;;21.69;50.94;99980.13;112296;1244;19508;-30
2024/01/05 02:01:28;;;;;;;;;1.00;1.00;;;;;21.69;50.87;99983.88;112360;1244;20707;-30
2024/01/05 02:03:56;;;;;;;;;1.00;1.00;;;;;21.70;50.66;99985.02;112263;1259;18120;-31
2024/01/05 02:06:23;;;;;;;;;2.00;2.00;;;;;21.68;50.91;99987.42;112425;1259;18553;-31
2024/01/05 02:08:50;;;;;;;;;1.00;1.00;;;;;21.65;50.93;99983.11;112243;1244;19207;-31
2024/01/05 02:11:18;;;;;;;;;2.00;1.00;;;;;21.63;50.81;99989.95;112485;1244;19621;-30
2024/01/05 02:13:45;;;;;;;;;1.33;1.00;;;;;21.65;50.82;99988.56;112251;1259;19876;-30
2024/01/05 02:16:13;;;;;;;;;1.00;1.00;;;;;21.64;50.72;99987.00;112452;1253;21070;-30
2024/01/05 02:18:40;;;;;;;;;2.00;2.00;;;;;21.63;50.78;99987.95;112275;1259;18781;-31
2024/01/05 02:21:08;;;;;;;;;1.00;1.00;;;;;21.60;50.82;99987.88;112437;1259;18636;-31
2024/01/05 02:23:35;;;;;;;;;1.00;1.00;;;;;21.62;50.84;99993.02;112301;1244;19285;-30
2024/01/05 02:26:02;;;;;;;;;1.00;1.00;;;;;21.61;50.52;99994.40;112485;1259;19524;-31
2024/01/05 02:28:29;;;;;;;;;1.00;1.00;;;;;21.60;50.89;99998.77;112323;1244;19959;-31
2024/01/05 02:30:57;;;;;;;;;1.50;1.00;;;;;21.59;50.75;99999.11;112362;1244;19304;-31
2024/01/05 02:33:24;;;;;;;;;1.00;1.00;;;;;21.59;50.98;100003.42;112357;1244;19619;-31
2024/01/05 02:35:51;;;;;;;;;1.00;1.00;;;;;21.59;50.93;100004.62;112268;1244;21148;-30
2024/01/05 02:38:19;;;;;;;;;2.00;1.00;;;;;21.62;50.52;100011.06;112397;1244;20669;-30
2024/01/05 02:40:46;;;;;;;;;1.00;1.00;;;;;21.61;50.45;100013.76;112237;1259;19449;-30
2024/01/05 02:43:13;;;;;;;;;2.00;1.00;;;;;21.59;50.73;100016.66;112411;1244;20353;-30
2024/01/05 02:45:41;;;;;;;;;2.00;2.00;;;;;21.60;50.64;100016.48;112254;1244;19294;-31
2024/01/05 02:48:08;;;;;;;;;1.00;1.00;;;;;21.60;50.50;100016.77;112405;1259;19341;-30
2024/01/05 02:50:35;;;;;;;;;2.00;1.00;;;;;21.60;50.63;100016.05;112321;1244;20046;-30
2024/01/05 02:53:03;;;;;;;;;1.00;1.00;;;;;21.59;50.35;100014.48;112253;1244;20741;-30
2024/01/05 02:55:30;;;;;;;;;1.00;1.00;;;;;21.59;50.34;100015.84;112313;1246;19575;-30
2024/01/05 02:57:57;;;;;;;;;1.00;1.00;;;;;21.59;50.38;100011.87;112328;1244;19986;-30
2024/01/05 03:00:25;;;;;;;;;2.00;1.00;;;;;21.57;50.33;100011.51;112325;1244;20661;-30
2024/01/05 03:02:52;;;;;;;;;1.00;1.00;;;;;21.58;50.26;100013.30;112331;1245;19613;-31
2024/01/05 03:05:19;;;;;;;;;1.50;1.00;;;;;21.57;50.28;100016.03;112329;1244;20282;-30
2024/01/05 03:07:46;;;;;;;;;2.00;1.00;;;;;21.57;50.35;100012.77;112325;1244;20717;-30
2024/01/05 03:10:14;;;;;;;;;1.00;1.00;;;;;21.59;50.41;100010.67;112337;1259;18217;-31
2024/01/05 03:12:41;;;;;;;;;1.00;1.00;;;;;21.59;50.31;100015.73;112262;1244;18581;-30
2024/01/05 03:15:08;;;;;;;;;1.00;1.00;;;;;21.59;50.16;100017.05;112257;1259;19293;-30
2024/01/05 03:17:36;;;;;;;;;2.00;1.00;;;;;21.59;50.27;100028.33;112180;1259;18155;-30
2024/01/05 03:20:03;;;;;;;;;1.00;1.00;;;;;21.59;50.09;100033.57;112244;1245;18593;-30
2024/01/05 03:22:30;;;;;;;;;1.00;1.00;;;;;21.58;50.17;100042.63;112199;1245;20669;-30
2024/01/05 03:24:58;;;;;;;;;1.00;1.00;;;;;21.57;50.16;100044.88;112231;1245;19511;-31
2024/01/05 03:27:25;;;;;;;;;1.00;1.00;;;;;21.57;50.04;100050.38;112174;1248;19967;-31
2024/01/05 03:29:52;;;;;;;;;1.00;1.00;;;;;21.57;49.97;100054.68;112304;1260;19518;-30
2024/01/05 03:32:20;;;;;;;;;1.00;1.00;;;;;21.57;50.01;100055.55;112175;1260;19628;-30
2024/01/05 03:34:47;;;;;;;;;1.00;1.00;;;;;21.58;50.21;100061.38;112232;1245;19935;-30
2024/01/05 03:37:14;;;;;;;;;1.00;1.00;;;;;21.56;50.05;100055.57;112206;1260;19355;-31
2024/01/05 03:39:41;;;;;;;;;1.00;1.00;;;;;21.55;49.90;100059.28;112203;1260;18151;-31
2024/01/05 03:42:09;;;;;;;;;1.00;1.00;;;;;21.56;50.11;100057.75;112217;1254;19958;-30
2024/01/05 03:44:36;;;;;;;;;1.00;1.00;;;;;21.56;50.09;100057.36;112155;1253;20638;-30
2024/01/05 03:47:03;;;;;;;;;1.00;1.00;;;;;21.55;50.04;100054.42;112257;1246;19621;-31
2024/01/05 03:49:31;;;;;;;;;1.00;1.00;;;;;21.56;50.01;100055.13;112153;1245;21055;-31
2024/01/05 03:51:58;;;;;;;;;1.00;1.00;;;;;21.56;50.00;100053.88;112267;1260;19359;-31
2024/01/05 03:54:25;;;;;;;;;1.00;1.00;;;;;21.56;49.80;100051.05;112182;1245;19873;-31
2024/01/05 03:56:53;;;;;;;;;1.00;1.00;;;;;21.55;49.71;100054.11;112233;1246;21432;-30
2024/01/05 03:59:20;;;;;;;;;2.00;2.00;;;;;21.54;49.91;100051.08;112144;1260;20686;-30
2024/01/05 04:01:47;;;;;;;;;1.00;1.00;;;;;21.54;49.83;100049.16;112170;1246;19718;-30
2024/01/05 04:04:14;;;;;;;;;1.00;1.00;;;;;21.55;49.92;100051.55;112214;1260;20127;-30
2024/01/05 04:06:42;;;;;;;;;1.00;1.00;;;;;21.54;49.85;100050.64;112169;1246;21988;-31
2024/01/05 04:09:10;;;;;;;;;1.50;1.50;;;;;21.55;50.03;100053.08;112244;1246;19649;-30
2024/01/05 04:11:37;;;;;;;;;1.00;1.00;;;;;21.54;49.88;100050.63;112152;1260;18633;-30
2024/01/05 04:14:05;;;;;;;;;1.00;1.00;;;;;21.55;49.81;100056.84;112170;1246;20781;-30
2024/01/05 04:16:32;;;;;;;;;1.00;1.00;;;;;21.54;49.80;100057.88;112193;1252;19527;-30
2024/01/05 04:18:59;;;;;;;;;2.00;2.00;;;;;21.54;49.63;100062.52;112230;1260;18604;-31
2024/01/05 04:21:27;;;;;;;;;1.00;1.00;;;;;21.54;49.74;100066.27;112157;1260;19373;-30
2024/01/05 04:23:54;;;;;;;;;1.00;1.00;;;;;21.55;49.75;100065.98;112221;1260;18224;-31
2024/01/05 04:26:21;;;;;;;;;1.00;1.00;;;;;21.54;49.78;100065.89;112195;1248;21616;-30
2024/01/05 04:28:48;;;;;;;;;2.00;2.00;;;;;21.55;49.57;100071.61;112276;1245;20765;-30
2024/01/05 04:31:16;;;;;;;;;1.00;1.00;;;;;21.55;49.85;100080.16;112166;1245;19755;-31
2024/01/05 04:33:43;;;;;;;;;1.00;1.00;;;;;21.53;49.73;100077.45;112224;1248;20082;-30
2024/01/05 04:36:12;;;;;;;;;1.00;1.00;;;;;21.54;49.62;100078.80;112174;1245;21895;-31
2024/01/05 04:38:39;;;;;;;;;3.00;2.00;;;;;21.53;49.36;100081.83;112235;1254;18178;-31
2024/01/05 04:41:06;;;;;;;;;1.00;1.00;;;;;21.52;49.49;100079.93;112229;1245;20101;-30
2024/01/05 04:43:34;;;;;;;;;1.50;1.50;;;;;21.51;49.57;100075.69;112261;1246;20967;-30
2024/01/05 04:46:01;;;;;;;;;1.50;1.50;;;;;21.52;49.25;100076.98;112156;1245;18452;-30
2024/01/05 04:48:29;;;;;;;;;2.00;2.00;;;;;21.52;49.73;100077.96;112111;1245;20052;-31
2024/01/05 04:50:56;;;;;;;;;2.00;2.00;;;;;21.52;49.65;100077.48;112150;1245;19369;-30
2024/01/05 04:53:23;;;;;;;;;2.00;2.00;;;;;21.51;49.58;100081.41;112133;1260;20054;-31
2024/01/05 04:55:51;;;;;;;;;1.50;1.50;;;;;21.52;49.39;100083.42;112194;1245;21292;-31
2024/01/05 04:58:18;;;;;;;;;1.50;1.50;;;;;21.52;49.46;100089.41;112150;1245;19421;-31
2024/01/05 05:00:46;;;;;;;;;1.00;1.00;;;;;21.50;49.37;100092.59;112173;1246;18147;-30
2024/01/05 05:03:13;;;;;;;;;2.00;2.00;;;;;21.50;49.45;100094.02;112157;1246;19958;-31
2024/01/05 05:05:41;;;;;;;;;1.50;1.50;;;;;21.50;49.37;100095.36;112151;1245;20871;-31
2024/01/05 05:08:13;;;;;;;;;2.00;2.00;;;;;21.52;49.15;100092.58;112160;1245;18715;-31
2024/01/05 05:10:40;;;;;;;;;1.50;1.50;;;;;21.50;49.31;100091.49;112134;1262;20138;-30
2024/01/05 05:13:07;;;;;;;;;2.00;2.00;;;;;21.51;49.41;100096.19;112115;1254;20798;-30
2024/01/05 05:15:35;;;;;;;;;2.00;2.00;;;;;21.50;49.27;100097.45;112105;1261;18390;-30
2024/01/05 05:18:02;;;;;;;;;2.00;2.00;;;;;21.49;49.27;100098.27;112177;1248;21249;-30
2024/01/05 05:20:29;;;;;;;;;1.67;1.67;;;;;21.49;49.14;100099.69;112085;1246;21120;-31
2024/01/05 05:22:57;;;;;;;;;2.00;2.00;;;;;21.49;49.30;100100.39;112196;1254;19185;-30
2024/01/05 05:25:24;;;;;;;;;4.00;4.00;;;;;21.50;49.25;100107.36;112081;1245;19876;-30
2024/01/05 05:27:51;;;;;;;;;4.00;2.00;;;;;21.49;49.27;100110.04;112094;1246;20827;-30
2024/01/05 05:30:18;;;;;;;;;2.00;2.00;;;;;21.49;49.35;100118.61;112049;1246;20797;-31
2024/01/05 05:32:46;;;;;;;;;2.00;2.00;;;;;21.48;49.09;100119.86;112070;1246;19979;-30
2024/01/05 05:35:13;;;;;;;;;2.00;2.00;;;;;21.49;49.29;100118.37;112099;1246;20793;-31
2024/01/05 05:37:40;;;;;;;;;4.00;2.00;;;;;21.49;49.15;100117.89;112059;1246;19652;-31
2024/01/05 05:40:08;;;;;;;;;1.00;1.00;;;;;21.49;49.20;100116.37;112120;1254;19951;-30
2024/01/05 05:42:36;;;;;;;;;2.00;2.00;;;;;21.50;49.10;100126.55;112003;1248;21985;-30
2024/01/05 05:45:04;;;;;;;;;2.00;2.00;;;;;21.49;48.96;100129.29;112119;1246;19650;-30
2024/01/05 05:47:31;;;;;;;;;2.00;2.00;;;;;21.49;49.06;100129.23;112150;1254;19983;-31
2024/01/05 05:49:58;;;;;;;;;2.00;2.00;;;;;21.49;49.10;100136.64;112081;1254;20616;-31
2024/01/05 05:52:26;;;;;;;;;2.00;2.00;;;;;21.50;49.08;100137.55;112039;1262;19553;-30
2024/01/05 05:54:53;;;;;;;;;2.00;2.00;;;;;21.49;48.93;100138.76;112122;1254;19953;-30
2024/01/05 05:57:20;;;;;;;;;1.00;1.00;;;;;21.49;49.10;100144.16;112075;1246;20865;-31
2024/01/05 05:59:48;;;;;;;;;2.00;2.00;;;;;21.49;48.88;100146.13;112149;1246;20814;-30
2024/01/05 06:02:15;;;;;;;;;4.00;4.00;;;;;21.49;48.85;100148.25;112128;1261;19974;-30
2024/01/05 06:04:42;;;;;;;;;2.00;2.00;;;;;21.49;48.97;100147.70;112194;1246;20749;-30
2024/01/05 06:07:10;;;;;;;;;2.00;2.00;;;;;21.50;49.22;100153.42;112093;1246;20755;-30
2024/01/05 06:09:37;;;;;;;;;2.00;2.00;;;;;21.50;49.09;100159.67;112236;1253;20121;-30
2024/01/05 06:12:04;;;;;;;;;1.00;1.00;;;;;21.50;48.87;100161.92;112165;1245;19308;-30
2024/01/05 06:14:32;;;;;;;;;3.50;2.00;;;;;21.50;49.08;100165.41;112161;1253;19697;-30
2024/01/05 06:16:59;;;;;;;;;4.00;2.00;;;;;21.50;49.11;100170.58;112185;1256;19806;-30
2024/01/05 06:19:26;;;;;;;;;2.00;2.00;;;;;21.50;49.06;100179.14;112172;1260;20724;-30
2024/01/05 06:21:54;;;;;;;;;2.00;2.00;;;;;21.50;49.16;100178.65;112191;1246;19484;-30
2024/01/05 06:24:21;;;;;;;;;3.00;2.00;;;;;21.49;49.19;100178.77;112163;1246;20214;-30
2024/01/05 06:26:48;;;;;;;;;2.00;2.00;;;;;21.48;49.04;100181.83;112211;1253;21955;-31
2024/01/05 06:29:16;;;;;;;;;2.00;2.00;;;;;21.49;49.15;100183.34;112135;1260;18218;-30
2024/01/05 06:31:43;;;;;;;;;1.67;1.67;;;;;21.52;48.82;100180.10;112187;1258;20057;-31
2024/01/05 06:34:10;;;;;;;;;4.00;4.00;;;;;21.52;48.79;100183.91;112163;1253;20363;-30
2024/01/05 06:36:38;;;;;;;;;2.00;2.00;;;;;21.57;48.60;100187.90;112128;1260;19592;-30
2024/01/05 06:39:05;;;;;;;;;3.00;3.00;;;;;21.56;48.69;100183.71;112107;1245;20214;-30
2024/01/05 06:41:32;;;;;;;;;2.00;2.00;;;;;21.51;48.75;100184.95;112165;1245;20832;-30
2024/01/05 06:44:00;;;;;;;;;2.00;2.00;;;;;21.53;48.56;100185.20;112137;1246;20853;-30
2024/01/05 06:46:27;;;;;;;;;4.00;4.00;;;;;21.62;48.56;100186.58;112215;1245;20516;-30
2024/01/05 06:48:56;;;;;;;;;3.00;3.00;;;;;21.66;48.68;100192.80;112159;1246;20852;-31
2024/01/05 06:51:24;;;;;;;;;2.00;2.00;;;;;21.69;48.73;100186.71;112193;1245;19658;-31
2024/01/05 06:53:51;;;;;;;;;4.00;4.00;;;;;21.77;49.20;100189.38;112138;1246;21262;-30
2024/01/05 06:56:19;;;;;;;;;4.00;2.00;;;;;21.81;48.96;100190.23;112148;1246;20745;-30
2024/01/05 06:58:46;;;;;;;;;4.00;4.00;;;;;21.79;49.12;100192.45;112145;1245;19654;-30
2024/01/05 07:01:13;;;;;;;;;4.00;4.00;;;;;21.88;49.14;100195.02;112163;1245;20122;-30
2024/01/05 07:03:41;;;;;;;;;2.00;2.00;;;;;21.80;49.55;100200.94;112160;1245;20824;-30
2024/01/05 07:06:11;;;;;;;;;4.00;2.00;;;;;21.77;50.01;100203.92;112234;1260;18189;-31
2024/01/05 07:08:38;;;;;;;;;2.00;2.00;;;;;21.75;49.74;100200.02;112275;1253;18624;-30
2024/01/05 07:11:06;;;;;;;;;2.00;2.00;;;;;21.78;49.76;100201.02;112433;1245;20937;-30
2024/01/05 07:13:34;;;;;;;;;4.00;4.00;;;;;21.72;49.86;100200.54;112339;1244;18576;-30
2024/01/05 07:16:01;;;;;;;;;5.00;5.00;;;;;21.71;50.26;100196.68;112226;1253;19928;-30
2024/01/05 07:18:28;;;;;;;;;4.00;2.00;;;;;21.72;49.69;100200.49;112409;1246;21963;-30
2024/01/05 07:20:55;;;;;;;;;4.00;4.00;;;;;21.71;50.15;100201.37;112229;1259;18305;-30
2024/01/05 07:23:23;;;;;;;;;2.00;2.00;;;;;21.71;50.17;100201.75;112451;1247;20058;-30
2024/01/05 07:25:50;;;;;;;;;4.50;4.00;;;;;21.68;50.38;100199.61;112282;1244;20804;-30
2024/01/05 07:28:17;;;;;;;;;4.00;4.00;;;;;21.61;50.44;100198.48;112483;1244;19686;-31
2024/01/05 07:30:45;;;;;;;;;4.00;2.00;;;;;21.69;50.48;100195.83;112288;1244;20129;-30
2024/01/05 07:33:12;;;;;;;;;4.00;3.33;;;;;21.67;50.42;100202.17;112495;1259;19376;-30
2024/01/05 07:35:39;;;;;;;;;7.00;5.00;;;;;21.65;50.41;100207.38;112341;1244;19637;-30
2024/01/05 07:38:07;;;;;;;;;7.00;7.00;;;;;21.63;50.33;100210.46;112490;1244;21460;-30
2024/01/05 07:40:34;;;;;;;;;4.00;4.00;;;;;21.63;50.31;100212.25;112338;1259;19347;-30
2024/01/05 07:43:01;;;;;;;;;4.50;4.50;;;;;21.62;50.12;100215.69;112238;1259;18177;-30
2024/01/05 07:45:29;;;;;;;;;4.00;2.00;;;;;21.61;50.21;100216.02;112391;1244;20046;-30
2024/01/05 07:47:57;;;;;;;;;5.00;4.50;;;;;21.60;50.21;100215.11;112223;1259;19371;-31
2024/01/05 07:50:25;;;;;;;;;5.00;5.00;;;;;21.58;50.31;100212.52;112282;1245;19578;-30
2024/01/05 07:52:52;;;;;;;;;5.00;4.00;;;;;21.60;50.13;100213.59;112350;1259;18675;-31
2024/01/05 07:55:19;;;;;;;;;5.00;4.00;;;;;21.58;50.13;100208.64;112329;1244;20780;-30
2024/01/05 07:57:47;;;;;;;;;4.00;2.00;;;;;21.57;49.94;100209.48;112241;1253;19581;-31
2024/01/05 08:00:14;;;;;;;;;7.00;5.00;;;;;21.61;49.82;100211.08;112336;1259;18679;-30
2024/01/05 08:02:42;;;;;;;;;5.00;5.00;;;;;21.70;49.80;100208.95;112255;1259;19344;-30
2024/01/05 08:05:09;;;;;;;;;5.00;5.00;;;;;21.75;49.52;100206.17;112373;1244;19649;-30
2024/01/05 08:07:37;;;;;;;;;4.00;4.00;;;;;21.76;49.56;100207.70;112263;1257;20077;-30
2024/01/05 08:10:04;;;;;;;;;8.00;5.00;;;;;21.74;49.35;100207.44;112320;1252;20805;-30
2024/01/05 08:12:31;;;;;;;;;8.33;5.00;;;;;21.70;49.53;100204.92;112232;1254;19772;-30
2024/01/05 08:14:59;;;;;;;;;5.00;5.00;;;;;21.68;49.88;100199.55;112371;1244;19921;-30
2024/01/05 08:17:26;;;;;;;;;4.00;4.00;;;;;21.64;50.08;100198.50;112270;1244;20898;-30
2024/01/05 08:19:53;;;;;;;;;5.00;5.00;;;;;21.62;50.09;100193.17;112305;1244;18210;-30
2024/01/05 08:22:21;;;;;;;;;5.00;4.00;;;;;21.66;50.14;100191.33;112251;1259;18672;-30
2024/01/05 08:24:48;;;;;;;;;7.00;7.00;;;;;21.70;49.79;100190.80;112402;1254;20783;-30
2024/01/05 08:27:15;;;;;;;;;5.00;4.00;;;;;21.76;50.26;100195.80;112288;1254;19520;-30
2024/01/05 08:29:43;;;;;;;;;7.00;5.00;;;;;21.71;50.27;100200.66;112406;1245;19607;-30
2024/01/05 08:32:10;;;;;;;;;4.00;4.00;;;;;21.69;50.25;100204.06;112279;1259;19371;-31
2024/01/05 08:34:37;;;;;;;;;5.00;5.00;;;;;21.64;49.80;100206.56;112254;1259;18207;-31
2024/01/05 08:37:05;;;;;;;;;2.00;2.00;;;;;21.61;50.19;100215.86;112288;1244;20048;-30
2024/01/05 08:39:32;;;;;;;;;5.00;4.50;;;;;21.61;49.97;100219.30;112253;1259;19389;-31
2024/01/05 08:42:00;;;;;;;;;5.00;5.00;;;;;21.69;50.28;100221.73;112317;1259;18226;-29
2024/01/05 08:44:27;;;;;;;;;5.00;5.00;;;;;21.73;50.22;100225.72;112218;1259;19837;-31
2024/01/05 08:46:54;;;;;;;;;5.00;5.00;;;;;21.72;50.05;100227.80;112321;1253;19331;-31
2024/01/05 08:49:22;;;;;;;;;4.00;4.00;;;;;21.72;50.23;100230.64;112262;1259;19624;-31
2024/01/05 08:51:49;;;;;;;;;5.00;4.50;;;;;21.69;50.06;100234.11;112373;1246;20195;-31
2024/01/05 08:54:16;;;;;;;;;4.00;4.00;;;;;21.68;49.97;100236.63;112306;1244;21000;-31
2024/01/05 08:56:44;;;;;;;;;4.00;4.00;;;;;21.68;49.94;100239.67;112336;1244;20852;-31
2024/01/05 08:59:12;;;;;;;;;7.00;7.00;;;;;21.68;49.81;100241.91;112303;1245;20125;-30
2024/01/05 09:01:39;;;;;;;;;4.00;4.00;;;;;21.70;50.29;100243.84;112335;1257;20262;-31
2024/01/05 09:04:10;;;;;;;;;5.00;5.00;;;;;21.66;50.09;100248.35;112286;1259;18576;-31
2024/01/05 09:06:37;;;;;;;;;2.00;2.00;;;;;21.70;50.41;100251.64;112280;1259;19994;-32
2024/01/05 09:09:05;;;;;;;;;5.00;5.00;;;;;21.69;50.25;100257.16;112270;1248;20817;-31
2024/01/05 09:11:32;;;;;;;;;5.00;5.00;;;;;21.68;50.17;100258.48;112159;1253;18263;-30
2024/01/05 09:14:00;;;;;;;;;4.00;4.00;;;;;21.65;50.20;100256.98;112164;1260;18838;-31
2024/01/05 09:16:27;;;;;;;;;4.00;4.00;;;;;21.69;50.01;100255.25;112136;1260;19576;-31
2024/01/05 09:18:54;;;;;;;;;4.00;2.00;;;;;21.80;49.94;100255.41;112161;1252;19490;-31
2024/01/05 09:21:22;;;;;;;;;4.00;4.00;;;;;21.91;49.45;100258.67;112150;1246;20034;-29
2024/01/05 09:23:49;;;;;;;;;4.33;4.00;;;;;21.87;49.42;100257.35;112137;1254;21942;-31
2024/01/05 09:26:16;;;;;;;;;36.00;27.00;;;;;21.84;49.50;100263.65;112097;1260;18379;-31
2024/01/05 09:28:44;;;;;;;;;88.00;63.00;;;;;21.87;49.23;100267.99;112125;1245;20096;-31
2024/01/05 09:31:11;;;;;;;;;92.00;67.00;;;;;21.88;49.55;100269.44;112129;1246;19217;-31
2024/01/05 09:33:38;;;;;;;;;113.33;84.67;;;;;21.95;49.39;100271.38;112083;1260;20011;-31
2024/01/05 09:36:06;;;;;;;;;110.00;83.00;;;;;21.84;49.92;100273.14;112074;1246;20190;-31
2024/01/05 09:38:33;;;;;;;;;95.00;70.00;;;;;21.82;49.70;100279.66;112094;1245;20969;-31
2024/01/05 09:41:00;;;;;;;;;93.00;69.00;;;;;21.71;50.37;100283.25;112081;1246;20379;-30
2024/01/05 09:43:27;;;;;;;;;75.50;58.00;;;;;21.75;49.95;100282.63;112082;1246;18798;-31
2024/01/05 09:45:55;;;;;;;;;76.50;60.00;;;;;21.73;49.63;100283.67;112109;1253;19606;-31
2024/01/05 09:48:22;;;;;;;;;76.50;55.00;;;;;21.79;49.77;100283.33;112159;1245;20012;-31
2024/01/05 09:50:50;;;;;;;;;70.50;54.00;;;;;21.79;49.41;100284.16;112190;1245;20144;-31
2024/01/05 09:53:17;;;;;;;;;62.00;46.00;;;;;21.89;49.16;100283.62;112246;1245;20767;-30
2024/01/05 09:55:45;;;;;;;;;52.33;45.33;;;;;21.99;48.41;100280.67;112187;1260;18580;-31
2024/01/05 09:58:12;;;;;;;;;51.00;41.50;;;;;21.92;48.54;100275.67;112217;1247;20450;-31
2024/01/05 10:00:39;;;;;;;;;46.33;36.67;;;;;21.99;48.66;100276.98;112252;1244;20773;-30
2024/01/05 10:03:07;;;;;;;;;36.00;33.00;;;;;22.01;48.72;100274.29;112149;1246;21618;-30
2024/01/05 10:05:35;;;;;;;;;42.00;33.00;;;;;22.06;48.94;100282.60;112174;1246;20521;-30
2024/01/05 10:08:04;;;;;;;;;42.00;30.00;;;;;21.98;48.99;100284.66;112204;1260;19357;-31
2024/01/05 10:10:31;;;;;;;;;39.67;29.33;;;;;21.91;49.18;100283.38;112136;1245;20024;-31
2024/01/05 10:12:58;;;;;;;;;32.67;27.33;;;;;21.89;49.32;100277.67;112139;1260;20096;-31
2024/01/05 10:15:26;;;;;;;;;30.67;26.67;;;;;21.87;49.25;100287.45;112180;1252;19783;-30
2024/01/05 10:17:53;;;;;;;;;26.00;21.00;;;;;21.86;49.62;100289.86;112153;1246;20017;-29
2024/01/05 10:20:21;;;;;;;;;31.50;24.00;;;;;21.92;49.50;100294.45;112196;1260;20096;-30
2024/01/05 10:22:49;;;;;;;;;25.50;23.00;;;;;21.96;49.53;100292.60;112158;1245;20817;-30
2024/01/05 10:25:16;;;;;;;;;21.00;17.00;;;;;22.01;49.90;100288.63;112146;1245;21190;-30
2024/01/05 10:27:44;;;;;;;;;23.00;21.00;;;;;21.94;50.10;100292.52;112125;1247;20008;-30
2024/01/05 10:30:11;;;;;;;;;20.00;20.00;;;;;21.97;49.69;100300.23;112143;1260;20675;-30
2024/01/05 10:32:39;;;;;;;;;23.00;20.00;;;;;22.10;49.43;100296.02;112162;1260;21129;-31
2024/01/05 10:35:06;;;;;;;;;13.00;13.00;;;;;22.08;49.67;100298.42;112196;1253;19954;-31
2024/01/05 10:37:34;;;;;;;;;20.00;15.00;;;;;21.94;49.80;100300.20;112170;1245;20796;-30
2024/01/05 10:40:04;;;;;;;;;17.50;15.00;;;;;21.96;49.99;100300.98;112241;1247;20062;-30
2024/01/05 10:42:32;;;;;;;;;14.00;13.00;;;;;21.97;49.79;100298.76;112145;1260;19992;-30
2024/01/05 10:45:01;;;;;;;;;17.00;14.00;;;;;21.94;49.80;100297.19;112186;1247;20712;-30
2024/01/05 10:47:29;;;;;;;;;16.50;13.00;;;;;21.92;49.67;100296.57;112164;1260;21090;-31
2024/01/05 10:49:56;;;;;;;;;12.00;9.00;;;;;21.92;49.80;100297.05;112158;1260;18754;-30
2024/01/05 10:52:23;;;;;;;;;12.00;10.50;;;;;21.89;49.26;100297.46;112146;1260;19487;-30
2024/01/05 10:54:52;;;;;;;;;13.67;12.33;;;;;21.80;48.91;100299.08;112192;1260;19904;-31
2024/01/05 10:57:19;;;;;;;;;13.00;11.00;;;;;21.82;49.08;100299.45;112146;1245;18727;-30
2024/01/05 11:02:12;;;;;;;;;10.50;10.00;;;;;21.91;49.18;100301.27;112192;1246;19615;-30
2024/01/05 11:04:39;;;;;;;;;7.00;5.00;;;;;21.89;49.38;100296.31;112106;1246;20327;-30
2024/01/05 11:07:07;;;;;;;;;9.50;7.50;;;;;21.94;49.14;100301.17;112178;1247;20793;-30
2024/01/05 11:09:34;;;;;;;;;11.00;10.00;;;;;21.89;48.97;100298.95;112006;1247;18516;-31
2024/01/05 11:12:01;;;;;;;;;10.00;10.00;;;;;21.92;49.13;100296.08;112189;1249;20073;-31
2024/01/05 11:14:29;;;;;;;;;8.00;8.00;;;;;21.96;49.00;100297.77;112146;1261;20711;-31
2024/01/05 11:16:56;;;;;;;;;8.00;8.00;;;;;21.85;49.11;100292.98;112158;1247;20138;-30
2024/01/05 11:19:23;;;;;;;;;10.50;10.50;;;;;21.81;49.53;100301.37;112189;1261;18827;-30